sensor_id;sensor_type;location;lat;lon;timestamp;pressure;altitude;pressure_sealevel;temperature;humidity
7109;BME280;29079;41.930;25.558;2023-04-01T00:00:38;98772.38;;;11.53;72.30
7109;BME280;29079;41.930;25.558;2023-04-01T00:03:11;98766.53;;;11.57;71.50
7109;BME280;29079;41.930;25.558;2023-04-01T00:05:44;98769.06;;;11.67;70.51
7109;BME280;29079;41.930;25.558;2023-04-01T00:08:17;98768.25;;;11.66;71.38
7109;BME280;29079;41.930;25.558;2023-04-01T00:10:52;98768.00;;;11.43;72.94
7109;BME280;29079;41.930;25.558;2023-04-01T00:13:27;98773.50;;;11.50;72.71
7109;BME280;29079;41.930;25.558;2023-04-01T00:16:00;98768.59;;;11.72;71.68
7109;BME280;29079;41.930;25.558;2023-04-01T00:18:44;98767.19;;;11.51;72.66
7109;BME280;29079;41.930;25.558;2023-04-01T00:21:19;98767.34;;;11.49;72.86
7109;BME280;29079;41.930;25.558;2023-04-01T00:23:53;98764.78;;;11.40;73.73
7109;BME280;29079;41.930;25.558;2023-04-01T00:26:29;98758.63;;;11.39;73.45
7109;BME280;29079;41.930;25.558;2023-04-01T00:29:02;98752.13;;;11.42;73.59
7109;BME280;29079;41.930;25.558;2023-04-01T00:31:35;98747.44;;;11.44;73.61
7109;BME280;29079;41.930;25.558;2023-04-01T00:34:08;98749.94;;;11.37;73.94
7109;BME280;29079;41.930;25.558;2023-04-01T00:36:43;98742.56;;;11.31;74.12
7109;BME280;29079;41.930;25.558;2023-04-01T00:39:17;98742.38;;;11.32;74.13
7109;BME280;29079;41.930;25.558;2023-04-01T00:41:51;98740.53;;;11.25;74.58
7109;BME280;29079;41.930;25.558;2023-04-01T00:44:25;98737.84;;;11.25;74.78
7109;BME280;29079;41.930;25.558;2023-04-01T00:46:59;98734.69;;;11.29;73.05
7109;BME280;29079;41.930;25.558;2023-04-01T00:49:33;98731.91;;;11.39;72.68
7109;BME280;29079;41.930;25.558;2023-04-01T00:52:08;98733.09;;;11.45;73.48
7109;BME280;29079;41.930;25.558;2023-04-01T00:54:44;98723.53;;;11.34;74.58
7109;BME280;29079;41.930;25.558;2023-04-01T00:57:22;98729.91;;;11.41;73.84
7109;BME280;29079;41.930;25.558;2023-04-01T00:59:59;98738.72;;;11.33;74.73
7109;BME280;29079;41.930;25.558;2023-04-01T01:02:33;98735.22;;;11.33;74.27
7109;BME280;29079;41.930;25.558;2023-04-01T01:05:08;98731.75;;;11.41;72.20
7109;BME280;29079;41.930;25.558;2023-04-01T01:07:43;98728.22;;;11.32;74.60
7109;BME280;29079;41.930;25.558;2023-04-01T01:10:18;98676.59;;;10.89;75.15
7109;BME280;29079;41.930;25.558;2023-04-01T01:12:55;98727.28;;;11.15;75.63
7109;BME280;29079;41.930;25.558;2023-04-01T01:15:34;98732.78;;;11.13;74.52
7109;BME280;29079;41.930;25.558;2023-04-01T01:18:09;98737.66;;;11.18;75.29
7109;BME280;29079;41.930;25.558;2023-04-01T01:23:51;98735.66;;;11.20;75.06
7109;BME280;29079;41.930;25.558;2023-04-01T01:26:40;98736.53;;;11.29;74.54
7109;BME280;29079;41.930;25.558;2023-04-01T01:29:29;98730.75;;;11.42;73.24
7109;BME280;29079;41.930;25.558;2023-04-01T01:32:07;98735.16;;;11.67;72.01
7109;BME280;29079;41.930;25.558;2023-04-01T01:34:45;98740.63;;;11.15;74.88
7109;BME280;29079;41.930;25.558;2023-04-01T01:37:25;98736.16;;;11.15;74.56
7109;BME280;29079;41.930;25.558;2023-04-01T01:40:00;98742.75;;;11.38;72.49
7109;BME280;29079;41.930;25.558;2023-04-01T01:42:35;98728.88;;;11.34;73.60
7109;BME280;29079;41.930;25.558;2023-04-01T01:45:09;98726.16;;;10.91;75.81
7109;BME280;29079;41.930;25.558;2023-04-01T01:47:45;98728.09;;;11.07;74.77
7109;BME280;29079;41.930;25.558;2023-04-01T01:50:19;98736.53;;;10.94;75.78
7109;BME280;29079;41.930;25.558;2023-04-01T01:53:01;98743.16;;;10.82;75.96
7109;BME280;29079;41.930;25.558;2023-04-01T01:55:34;98746.69;;;10.65;77.32
7109;BME280;29079;41.930;25.558;2023-04-01T01:58:09;98740.41;;;10.74;76.95
7109;BME280;29079;41.930;25.558;2023-04-01T02:00:44;98738.84;;;10.89;74.65
7109;BME280;29079;41.930;25.558;2023-04-01T02:03:20;98736.94;;;10.82;76.79
7109;BME280;29079;41.930;25.558;2023-04-01T02:05:55;98738.28;;;11.12;73.11
7109;BME280;29079;41.930;25.558;2023-04-01T02:08:31;98745.97;;;10.80;76.00
7109;BME280;29079;41.930;25.558;2023-04-01T02:11:07;98746.25;;;10.51;78.32
7109;BME280;29079;41.930;25.558;2023-04-01T02:13:43;98754.31;;;10.86;75.15
7109;BME280;29079;41.930;25.558;2023-04-01T02:16:18;98740.50;;;10.64;77.07
7109;BME280;29079;41.930;25.558;2023-04-01T02:18:53;98740.50;;;10.64;76.56
7109;BME280;29079;41.930;25.558;2023-04-01T02:21:29;98730.16;;;10.87;76.06
7109;BME280;29079;41.930;25.558;2023-04-01T02:24:06;98722.72;;;10.73;75.82
7109;BME280;29079;41.930;25.558;2023-04-01T02:26:40;98706.13;;;10.87;75.01
7109;BME280;29079;41.930;25.558;2023-04-01T02:29:14;98703.84;;;11.01;73.64
7109;BME280;29079;41.930;25.558;2023-04-01T02:31:48;98713.81;;;10.90;74.83
7109;BME280;29079;41.930;25.558;2023-04-01T02:34:22;98715.38;;;11.01;75.14
7109;BME280;29079;41.930;25.558;2023-04-01T02:36:55;98713.63;;;10.84;76.49
7109;BME280;29079;41.930;25.558;2023-04-01T02:39:31;98706.69;;;10.65;77.11
7109;BME280;29079;41.930;25.558;2023-04-01T02:42:04;98712.88;;;11.00;73.38
7109;BME280;29079;41.930;25.558;2023-04-01T02:44:38;98720.91;;;11.08;74.96
7109;BME280;29079;41.930;25.558;2023-04-01T02:47:11;98713.19;;;10.70;76.62
7109;BME280;29079;41.930;25.558;2023-04-01T02:49:44;98706.69;;;10.65;76.94
7109;BME280;29079;41.930;25.558;2023-04-01T02:52:16;98702.50;;;10.70;76.59
7109;BME280;29079;41.930;25.558;2023-04-01T02:54:51;98695.41;;;10.53;76.95
7109;BME280;29079;41.930;25.558;2023-04-01T02:57:24;98695.63;;;10.59;75.83
7109;BME280;29079;41.930;25.558;2023-04-01T02:59:58;98689.97;;;10.62;75.77
7109;BME280;29079;41.930;25.558;2023-04-01T03:02:31;98693.91;;;10.50;76.04
7109;BME280;29079;41.930;25.558;2023-04-01T03:05:05;98691.41;;;10.83;74.39
7109;BME280;29079;41.930;25.558;2023-04-01T03:07:38;98690.69;;;10.47;76.63
7109;BME280;29079;41.930;25.558;2023-04-01T03:10:13;98690.00;;;10.26;76.98
7109;BME280;29079;41.930;25.558;2023-04-01T03:12:46;98692.38;;;10.29;76.78
7109;BME280;29079;41.930;25.558;2023-04-01T03:15:20;98689.47;;;10.41;76.92
7109;BME280;29079;41.930;25.558;2023-04-01T03:17:54;98682.13;;;10.35;76.39
7109;BME280;29079;41.930;25.558;2023-04-01T03:20:27;98676.88;;;10.51;75.29
7109;BME280;29079;41.930;25.558;2023-04-01T03:23:00;98668.38;;;10.48;75.12
7109;BME280;29079;41.930;25.558;2023-04-01T03:25:34;98672.28;;;10.61;74.80
7109;BME280;29079;41.930;25.558;2023-04-01T03:28:08;98677.31;;;10.65;74.63
7109;BME280;29079;41.930;25.558;2023-04-01T03:30:43;98688.28;;;10.35;76.38
7109;BME280;29079;41.930;25.558;2023-04-01T03:33:16;98689.19;;;10.26;76.82
7109;BME280;29079;41.930;25.558;2023-04-01T03:35:49;98672.03;;;10.28;76.67
7109;BME280;29079;41.930;25.558;2023-04-01T03:38:24;98662.75;;;10.33;76.04
7109;BME280;29079;41.930;25.558;2023-04-01T03:40:58;98661.19;;;10.48;75.94
7109;BME280;29079;41.930;25.558;2023-04-01T03:43:32;98660.88;;;10.51;75.05
7109;BME280;29079;41.930;25.558;2023-04-01T03:46:05;98666.41;;;10.32;76.79
7109;BME280;29079;41.930;25.558;2023-04-01T03:48:38;98667.03;;;10.25;76.89
7109;BME280;29079;41.930;25.558;2023-04-01T03:51:11;98668.78;;;10.35;76.79
7109;BME280;29079;41.930;25.558;2023-04-01T03:53:44;98670.75;;;10.33;76.69
7109;BME280;29079;41.930;25.558;2023-04-01T03:56:18;98669.16;;;10.40;74.89
7109;BME280;29079;41.930;25.558;2023-04-01T03:58:51;98674.13;;;10.61;74.07
7109;BME280;29079;41.930;25.558;2023-04-01T04:01:25;98675.63;;;10.37;76.63
7109;BME280;29079;41.930;25.558;2023-04-01T04:03:58;98669.94;;;10.14;77.08
7109;BME280;29079;41.930;25.558;2023-04-01T04:06:32;98671.63;;;9.97;78.03
7109;BME280;29079;41.930;25.558;2023-04-01T04:09:05;98662.09;;;9.94;78.24
7109;BME280;29079;41.930;25.558;2023-04-01T04:11:40;98667.06;;;9.89;78.82
7109;BME280;29079;41.930;25.558;2023-04-01T04:14:13;98685.94;;;9.96;77.76
7109;BME280;29079;41.930;25.558;2023-04-01T04:16:47;98680.59;;;9.78;78.82
7109;BME280;29079;41.930;25.558;2023-04-01T04:19:20;98674.16;;;9.81;78.69
7109;BME280;29079;41.930;25.558;2023-04-01T04:21:53;98673.44;;;9.61;79.53
7109;BME280;29079;41.930;25.558;2023-04-01T04:24:26;98680.66;;;9.50;80.09
7109;BME280;29079;41.930;25.558;2023-04-01T04:27:01;98687.47;;;9.35;80.93
7109;BME280;29079;41.930;25.558;2023-04-01T04:29:34;98687.16;;;9.66;79.53
7109;BME280;29079;41.930;25.558;2023-04-01T04:32:07;98697.03;;;9.55;79.75
7109;BME280;29079;41.930;25.558;2023-04-01T04:34:41;98694.50;;;9.36;81.77
7109;BME280;29079;41.930;25.558;2023-04-01T04:37:14;98688.09;;;9.29;82.48
7109;BME280;29079;41.930;25.558;2023-04-01T04:39:47;98676.81;;;9.35;81.64
7109;BME280;29079;41.930;25.558;2023-04-01T04:42:21;98674.47;;;9.32;81.73
7109;BME280;29079;41.930;25.558;2023-04-01T04:44:54;98685.38;;;9.38;81.83
7109;BME280;29079;41.930;25.558;2023-04-01T04:47:27;98688.41;;;9.44;81.39
7109;BME280;29079;41.930;25.558;2023-04-01T04:50:01;98686.19;;;9.39;81.58
7109;BME280;29079;41.930;25.558;2023-04-01T04:52:33;98678.25;;;9.57;81.27
7109;BME280;29079;41.930;25.558;2023-04-01T04:55:07;98676.97;;;9.33;81.84
7109;BME280;29079;41.930;25.558;2023-04-01T04:57:41;98680.19;;;9.37;81.94
7109;BME280;29079;41.930;25.558;2023-04-01T05:00:14;98676.63;;;9.46;81.19
7109;BME280;29079;41.930;25.558;2023-04-01T05:02:48;98684.88;;;9.53;80.26
7109;BME280;29079;41.930;25.558;2023-04-01T05:05:21;98680.88;;;9.39;82.09
7109;BME280;29079;41.930;25.558;2023-04-01T05:07:54;98681.63;;;9.31;82.10
7109;BME280;29079;41.930;25.558;2023-04-01T05:10:28;98674.31;;;9.33;82.09
7109;BME280;29079;41.930;25.558;2023-04-01T05:13:04;98669.59;;;9.27;82.78
7109;BME280;29079;41.930;25.558;2023-04-01T05:15:37;98665.50;;;9.33;82.20
7109;BME280;29079;41.930;25.558;2023-04-01T05:18:11;98655.00;;;9.49;81.92
7109;BME280;29079;41.930;25.558;2023-04-01T05:20:45;98641.69;;;9.49;81.68
7109;BME280;29079;41.930;25.558;2023-04-01T05:23:19;98643.47;;;9.58;81.72
7109;BME280;29079;41.930;25.558;2023-04-01T05:25:54;98651.38;;;9.68;81.05
7109;BME280;29079;41.930;25.558;2023-04-01T05:28:32;98659.22;;;9.52;81.76
7109;BME280;29079;41.930;25.558;2023-04-01T05:31:08;98659.59;;;9.57;81.43
7109;BME280;29079;41.930;25.558;2023-04-01T05:33:41;98654.34;;;9.47;82.09
7109;BME280;29079;41.930;25.558;2023-04-01T05:36:16;98651.59;;;9.39;82.33
7109;BME280;29079;41.930;25.558;2023-04-01T05:38:57;98646.41;;;9.37;82.10
7109;BME280;29079;41.930;25.558;2023-04-01T05:41:37;98642.47;;;9.59;81.53
7109;BME280;29079;41.930;25.558;2023-04-01T05:44:12;98632.13;;;9.74;81.76
7109;BME280;29079;41.930;25.558;2023-04-01T05:46:45;98635.59;;;9.93;80.23
7109;BME280;29079;41.930;25.558;2023-04-01T05:49:19;98631.88;;;10.04;80.20
7109;BME280;29079;41.930;25.558;2023-04-01T05:51:52;98640.03;;;10.28;78.86
7109;BME280;29079;41.930;25.558;2023-04-01T05:54:25;98634.50;;;10.40;78.20
7109;BME280;29079;41.930;25.558;2023-04-01T05:56:59;98643.78;;;10.36;78.17
7109;BME280;29079;41.930;25.558;2023-04-01T05:59:33;98637.25;;;10.56;77.43
7109;BME280;29079;41.930;25.558;2023-04-01T06:02:07;98646.28;;;10.63;77.22
7109;BME280;29079;41.930;25.558;2023-04-01T06:04:41;98645.69;;;10.78;77.07
7109;BME280;29079;41.930;25.558;2023-04-01T06:07:15;98652.41;;;10.90;76.73
7109;BME280;29079;41.930;25.558;2023-04-01T06:09:48;98645.19;;;11.25;71.97
7109;BME280;29079;41.930;25.558;2023-04-01T06:12:29;98638.53;;;11.29;73.05
7109;BME280;29079;41.930;25.558;2023-04-01T06:15:15;98646.78;;;11.53;73.66
7109;BME280;29079;41.930;25.558;2023-04-01T06:17:59;98650.81;;;11.57;73.28
7109;BME280;29079;41.930;25.558;2023-04-01T06:20:39;98643.09;;;11.45;74.18
7109;BME280;29079;41.930;25.558;2023-04-01T06:23:33;98636.94;;;11.45;75.62
7109;BME280;29079;41.930;25.558;2023-04-01T06:26:14;98636.94;;;11.45;76.11
7109;BME280;29079;41.930;25.558;2023-04-01T06:29:02;98629.94;;;11.52;75.37
7109;BME280;29079;41.930;25.558;2023-04-01T06:31:56;98630.78;;;11.61;75.07
7109;BME280;29079;41.930;25.558;2023-04-01T06:34:44;98619.94;;;11.71;71.61
7109;BME280;29079;41.930;25.558;2023-04-01T06:40:31;98612.22;;;11.67;74.96
7109;BME280;29079;41.930;25.558;2023-04-01T06:43:09;98608.59;;;11.85;73.71
7109;BME280;29079;41.930;25.558;2023-04-01T06:45:46;98593.84;;;11.89;73.98
7109;BME280;29079;41.930;25.558;2023-04-01T06:48:30;98582.38;;;11.97;72.78
7109;BME280;29079;41.930;25.558;2023-04-01T06:51:08;98580.53;;;12.06;73.11
7109;BME280;29079;41.930;25.558;2023-04-01T06:53:46;98578.84;;;12.13;72.78
7109;BME280;29079;41.930;25.558;2023-04-01T06:56:22;98579.03;;;12.11;72.98
7109;BME280;29079;41.930;25.558;2023-04-01T06:58:59;98586.66;;;12.23;73.28
7109;BME280;29079;41.930;25.558;2023-04-01T07:01:33;98587.66;;;12.30;74.03
7109;BME280;29079;41.930;25.558;2023-04-01T07:04:11;98594.00;;;12.37;73.79
7109;BME280;29079;41.930;25.558;2023-04-01T07:06:47;98589.16;;;12.41;74.65
7109;BME280;29079;41.930;25.558;2023-04-01T07:09:24;98578.75;;;12.46;74.70
7109;BME280;29079;41.930;25.558;2023-04-01T07:12:02;98574.38;;;12.53;74.81
7109;BME280;29079;41.930;25.558;2023-04-01T07:14:39;98571.50;;;12.63;74.84
7109;BME280;29079;41.930;25.558;2023-04-01T07:17:15;98565.97;;;12.73;74.82
7109;BME280;29079;41.930;25.558;2023-04-01T07:19:50;98560.22;;;12.84;74.48
7109;BME280;29079;41.930;25.558;2023-04-01T07:22:26;98560.31;;;12.99;74.71
7109;BME280;29079;41.930;25.558;2023-04-01T07:25:03;98559.75;;;13.12;75.11
7109;BME280;29079;41.930;25.558;2023-04-01T07:27:38;98551.19;;;13.16;74.93
7109;BME280;29079;41.930;25.558;2023-04-01T07:30:13;98537.13;;;13.14;75.26
7109;BME280;29079;41.930;25.558;2023-04-01T07:32:47;98524.63;;;13.30;75.10
7109;BME280;29079;41.930;25.558;2023-04-01T07:35:25;98524.88;;;13.43;76.03
7109;BME280;29079;41.930;25.558;2023-04-01T07:38:05;98528.50;;;13.73;76.21
7109;BME280;29079;41.930;25.558;2023-04-01T07:40:43;98516.91;;;13.96;78.09
7109;BME280;29079;41.930;25.558;2023-04-01T07:43:28;98512.84;;;14.15;78.39
7109;BME280;29079;41.930;25.558;2023-04-01T07:46:07;98506.47;;;14.31;78.26
7109;BME280;29079;41.930;25.558;2023-04-01T07:48:46;98498.88;;;14.50;77.55
7109;BME280;29079;41.930;25.558;2023-04-01T07:51:23;98494.81;;;14.69;77.02
7109;BME280;29079;41.930;25.558;2023-04-01T07:54:01;98490.59;;;14.81;75.36
7109;BME280;29079;41.930;25.558;2023-04-01T07:56:38;98495.44;;;15.07;74.43
7109;BME280;29079;41.930;25.558;2023-04-01T07:59:14;98481.09;;;15.22;73.47
7109;BME280;29079;41.930;25.558;2023-04-01T08:01:49;98474.63;;;15.38;72.52
7109;BME280;29079;41.930;25.558;2023-04-01T08:04:31;98474.63;;;15.38;71.78
7109;BME280;29079;41.930;25.558;2023-04-01T08:07:12;98471.72;;;15.61;71.21
7109;BME280;29079;41.930;25.558;2023-04-01T08:09:48;98473.00;;;15.37;70.27
7109;BME280;29079;41.930;25.558;2023-04-01T08:12:27;98472.22;;;15.21;72.60
7109;BME280;29079;41.930;25.558;2023-04-01T08:15:09;98461.06;;;15.46;72.15
7109;BME280;29079;41.930;25.558;2023-04-01T08:17:47;98450.13;;;15.47;71.61
7109;BME280;29079;41.930;25.558;2023-04-01T08:20:25;98445.31;;;15.71;71.48
7109;BME280;29079;41.930;25.558;2023-04-01T08:23:05;98425.88;;;15.69;70.41
7109;BME280;29079;41.930;25.558;2023-04-01T08:25:40;98422.63;;;15.45;70.57
7109;BME280;29079;41.930;25.558;2023-04-01T08:28:19;98437.69;;;15.46;70.14
7109;BME280;29079;41.930;25.558;2023-04-01T08:30:53;98439.25;;;15.34;70.49
7109;BME280;29079;41.930;25.558;2023-04-01T08:33:29;98438.78;;;15.52;68.64
7109;BME280;29079;41.930;25.558;2023-04-01T08:36:05;98422.31;;;15.62;70.09
7109;BME280;29079;41.930;25.558;2023-04-01T08:38:41;98423.97;;;15.63;69.71
7109;BME280;29079;41.930;25.558;2023-04-01T08:41:20;98423.03;;;15.49;70.24
7109;BME280;29079;41.930;25.558;2023-04-01T08:52:45;98421.34;;;15.41;70.25
7109;BME280;29079;41.930;25.558;2023-04-01T08:55:27;98416.34;;;15.38;69.89
7109;BME280;29079;41.930;25.558;2023-04-01T08:58:08;98396.50;;;15.39;70.67
7109;BME280;29079;41.930;25.558;2023-04-01T09:00:46;98408.09;;;15.40;71.05
7109;BME280;29079;41.930;25.558;2023-04-01T09:06:22;98396.81;;;15.51;70.30
7109;BME280;29079;41.930;25.558;2023-04-01T09:09:02;98390.97;;;15.47;70.14
7109;BME280;29079;41.930;25.558;2023-04-01T09:11:58;98392.47;;;15.57;69.95
7109;BME280;29079;41.930;25.558;2023-04-01T09:14:41;98382.22;;;15.67;70.18
7109;BME280;29079;41.930;25.558;2023-04-01T09:17:33;98366.50;;;15.71;69.04
7109;BME280;29079;41.930;25.558;2023-04-01T09:20:25;98360.63;;;15.89;69.34
7109;BME280;29079;41.930;25.558;2023-04-01T09:23:10;98358.78;;;15.89;68.65
7109;BME280;29079;41.930;25.558;2023-04-01T09:25:51;98337.75;;;16.06;68.41
7109;BME280;29079;41.930;25.558;2023-04-01T09:28:33;98343.59;;;16.16;67.97
7109;BME280;29079;41.930;25.558;2023-04-01T09:31:31;98334.47;;;16.17;66.94
7109;BME280;29079;41.930;25.558;2023-04-01T09:37:18;98318.16;;;16.26;67.15
7109;BME280;29079;41.930;25.558;2023-04-01T09:40:02;98309.06;;;16.27;67.17
7109;BME280;29079;41.930;25.558;2023-04-01T09:42:43;98309.88;;;16.27;66.74
7109;BME280;29079;41.930;25.558;2023-04-01T09:45:22;98314.03;;;16.36;65.95
7109;BME280;29079;41.930;25.558;2023-04-01T09:48:02;98303.94;;;16.59;64.49
7109;BME280;29079;41.930;25.558;2023-04-01T09:50:42;98306.59;;;16.45;63.97
7109;BME280;29079;41.930;25.558;2023-04-01T09:53:32;98298.94;;;16.49;64.32
7109;BME280;29079;41.930;25.558;2023-04-01T09:59:08;98282.38;;;16.52;63.22
7109;BME280;29079;41.930;25.558;2023-04-01T10:01:58;98274.94;;;16.67;62.86
7109;BME280;29079;41.930;25.558;2023-04-01T10:10:25;98249.47;;;16.63;60.86
7109;BME280;29079;41.930;25.558;2023-04-01T10:13:14;98250.09;;;16.59;61.20
7109;BME280;29079;41.930;25.558;2023-04-01T10:16:03;98244.69;;;16.59;60.64
7109;BME280;29079;41.930;25.558;2023-04-01T10:21:49;98227.47;;;16.46;60.93
7109;BME280;29079;41.930;25.558;2023-04-01T10:27:26;98222.09;;;16.60;60.25
7109;BME280;29079;41.930;25.558;2023-04-01T10:35:55;98217.34;;;16.55;60.06
7109;BME280;29079;41.930;25.558;2023-04-01T10:41:40;98226.88;;;16.58;61.00
7109;BME280;29079;41.930;25.558;2023-04-01T10:44:34;98221.47;;;16.78;60.36
7109;BME280;29079;41.930;25.558;2023-04-01T10:47:32;98223.56;;;16.96;59.93
7109;BME280;29079;41.930;25.558;2023-04-01T10:50:16;98208.94;;;17.44;58.35
7109;BME280;29079;41.930;25.558;2023-04-01T11:02:03;98207.56;;;17.14;59.24
7109;BME280;29079;41.930;25.558;2023-04-01T11:05:02;98215.88;;;17.06;59.75
7109;BME280;29079;41.930;25.558;2023-04-01T11:08:11;98220.66;;;17.04;59.97
7109;BME280;29079;41.930;25.558;2023-04-01T11:13:50;98203.25;;;16.86;60.71
7109;BME280;29079;41.930;25.558;2023-04-01T11:22:19;98196.63;;;16.89;60.26
7109;BME280;29079;41.930;25.558;2023-04-01T11:25:22;98192.88;;;16.77;58.93
7109;BME280;29079;41.930;25.558;2023-04-01T11:28:20;98194.13;;;16.74;58.34
7109;BME280;29079;41.930;25.558;2023-04-01T11:31:11;98191.44;;;16.67;57.51
7109;BME280;29079;41.930;25.558;2023-04-01T11:33:51;98186.88;;;16.61;57.99
7109;BME280;29079;41.930;25.558;2023-04-01T11:36:31;98176.72;;;16.57;58.14
7109;BME280;29079;41.930;25.558;2023-04-01T11:39:13;98170.53;;;16.49;58.54
7109;BME280;29079;41.930;25.558;2023-04-01T11:41:56;98167.44;;;16.46;58.58
7109;BME280;29079;41.930;25.558;2023-04-01T11:44:33;98153.34;;;16.50;57.97
7109;BME280;29079;41.930;25.558;2023-04-01T11:47:15;98153.75;;;16.41;58.22
7109;BME280;29079;41.930;25.558;2023-04-01T11:49:55;98154.38;;;16.43;58.10
7109;BME280;29079;41.930;25.558;2023-04-01T11:52:34;98144.84;;;16.40;58.82
7109;BME280;29079;41.930;25.558;2023-04-01T11:55:25;98141.94;;;16.42;59.46
7109;BME280;29079;41.930;25.558;2023-04-01T11:58:08;98136.13;;;16.38;59.61
7109;BME280;29079;41.930;25.558;2023-04-01T12:00:57;98137.19;;;16.37;59.47
7109;BME280;29079;41.930;25.558;2023-04-01T12:03:43;98123.09;;;16.35;60.34
7109;BME280;29079;41.930;25.558;2023-04-01T12:06:20;98116.69;;;16.36;60.37
7109;BME280;29079;41.930;25.558;2023-04-01T12:09:00;98124.56;;;16.44;60.26
7109;BME280;29079;41.930;25.558;2023-04-01T12:11:38;98095.13;;;16.56;60.20
7109;BME280;29079;41.930;25.558;2023-04-01T12:14:16;98098.16;;;16.80;59.29
7109;BME280;29079;41.930;25.558;2023-04-01T12:16:55;98093.41;;;16.82;59.22
7109;BME280;29079;41.930;25.558;2023-04-01T12:19:35;98085.94;;;16.84;60.02
7109;BME280;29079;41.930;25.558;2023-04-01T12:22:19;98094.22;;;16.82;59.42
7109;BME280;29079;41.930;25.558;2023-04-01T12:24:58;98085.13;;;16.83;59.59
7109;BME280;29079;41.930;25.558;2023-04-01T12:27:42;98107.03;;;17.00;58.84
7109;BME280;29079;41.930;25.558;2023-04-01T12:33:35;98065.06;;;17.25;57.37
7109;BME280;29079;41.930;25.558;2023-04-01T12:36:20;98066.91;;;17.63;55.91
7109;BME280;29079;41.930;25.558;2023-04-01T12:39:06;98066.00;;;17.75;55.46
7109;BME280;29079;41.930;25.558;2023-04-01T12:41:46;98062.59;;;17.94;54.64
7109;BME280;29079;41.930;25.558;2023-04-01T12:44:39;98046.34;;;18.00;54.60
7109;BME280;29079;41.930;25.558;2023-04-01T12:47:22;98065.84;;;18.02;54.19
7109;BME280;29079;41.930;25.558;2023-04-01T12:50:06;98044.38;;;17.82;54.54
7109;BME280;29079;41.930;25.558;2023-04-01T12:52:51;98040.94;;;18.00;54.13
7109;BME280;29079;41.930;25.558;2023-04-01T12:55:35;98028.00;;;18.09;53.85
7109;BME280;29079;41.930;25.558;2023-04-01T12:58:32;98041.16;;;17.99;53.84
7109;BME280;29079;41.930;25.558;2023-04-01T13:01:15;98030.88;;;18.14;53.55
7109;BME280;29079;41.930;25.558;2023-04-01T13:03:59;98032.56;;;18.08;53.54
7109;BME280;29079;41.930;25.558;2023-04-01T13:06:41;98017.06;;;18.04;53.70
7109;BME280;29079;41.930;25.558;2023-04-01T13:09:22;98007.84;;;18.12;53.39
7109;BME280;29079;41.930;25.558;2023-04-01T13:12:06;97996.81;;;18.13;53.67
7109;BME280;29079;41.930;25.558;2023-04-01T13:14:47;98000.94;;;18.16;53.36
7109;BME280;29079;41.930;25.558;2023-04-01T13:17:27;97998.16;;;18.04;53.93
7109;BME280;29079;41.930;25.558;2023-04-01T13:20:05;97988.31;;;17.91;54.51
7109;BME280;29079;41.930;25.558;2023-04-01T13:22:45;97976.31;;;17.80;54.96
7109;BME280;29079;41.930;25.558;2023-04-01T13:25:23;97977.78;;;17.76;54.86
7109;BME280;29079;41.930;25.558;2023-04-01T13:28:00;97973.16;;;17.83;55.00
7109;BME280;29079;41.930;25.558;2023-04-01T13:30:39;97982.56;;;17.81;55.29
7109;BME280;29079;41.930;25.558;2023-04-01T13:33:20;97965.81;;;17.72;55.99
7109;BME280;29079;41.930;25.558;2023-04-01T13:36:03;97973.59;;;17.62;55.96
7109;BME280;29079;41.930;25.558;2023-04-01T13:38:43;97966.69;;;17.66;56.27
7109;BME280;29079;41.930;25.558;2023-04-01T13:41:22;97955.97;;;17.59;56.58
7109;BME280;29079;41.930;25.558;2023-04-01T13:43:59;97949.63;;;17.72;56.12
7109;BME280;29079;41.930;25.558;2023-04-01T13:46:38;97954.81;;;17.73;56.42
7109;BME280;29079;41.930;25.558;2023-04-01T13:49:20;97951.78;;;17.63;56.31
7109;BME280;29079;41.930;25.558;2023-04-01T13:52:01;97943.84;;;17.68;56.38
7109;BME280;29079;41.930;25.558;2023-04-01T13:54:43;97947.88;;;17.59;56.36
7109;BME280;29079;41.930;25.558;2023-04-01T13:57:23;97939.34;;;17.62;56.25
7109;BME280;29079;41.930;25.558;2023-04-01T14:02:53;97934.53;;;17.64;56.67
7109;BME280;29079;41.930;25.558;2023-04-01T14:05:38;97951.94;;;17.68;56.70
7109;BME280;29079;41.930;25.558;2023-04-01T14:08:20;97936.25;;;17.58;56.78
7109;BME280;29079;41.930;25.558;2023-04-01T14:11:02;97940.44;;;17.54;57.12
7109;BME280;29079;41.930;25.558;2023-04-01T14:13:41;97936.53;;;17.50;57.30
7109;BME280;29079;41.930;25.558;2023-04-01T14:16:27;97934.06;;;17.49;57.28
7109;BME280;29079;41.930;25.558;2023-04-01T14:19:08;97936.09;;;17.53;57.20
7109;BME280;29079;41.930;25.558;2023-04-01T14:21:47;97934.59;;;17.57;57.09
7109;BME280;29079;41.930;25.558;2023-04-01T14:24:31;97918.56;;;17.63;56.94
7109;BME280;29079;41.930;25.558;2023-04-01T14:30:00;97940.81;;;17.58;56.73
7109;BME280;29079;41.930;25.558;2023-04-01T14:32:39;97941.03;;;17.56;56.70
7109;BME280;29079;41.930;25.558;2023-04-01T14:35:23;97965.56;;;17.48;56.95
7109;BME280;29079;41.930;25.558;2023-04-01T14:40:53;98093.63;;;17.39;57.85
7109;BME280;29079;41.930;25.558;2023-04-01T14:46:34;98139.06;;;16.50;60.46
7109;BME280;29079;41.930;25.558;2023-04-01T14:49:15;98147.56;;;15.45;75.75
7109;BME280;29079;41.930;25.558;2023-04-01T14:51:50;98126.19;;;14.82;78.54
7109;BME280;29079;41.930;25.558;2023-04-01T14:54:30;98134.41;;;14.73;78.38
7109;BME280;29079;41.930;25.558;2023-04-01T14:57:09;98146.41;;;14.77;75.71
7109;BME280;29079;41.930;25.558;2023-04-01T14:59:46;98154.09;;;14.59;77.93
7109;BME280;29079;41.930;25.558;2023-04-01T15:02:31;98149.28;;;14.48;76.31
7109;BME280;29079;41.930;25.558;2023-04-01T15:05:10;98162.97;;;14.31;77.69
7109;BME280;29079;41.930;25.558;2023-04-01T15:07:58;98166.69;;;14.30;79.92
7109;BME280;29079;41.930;25.558;2023-04-01T15:10:53;98168.38;;;14.09;79.57
7109;BME280;29079;41.930;25.558;2023-04-01T15:16:36;98173.66;;;14.03;79.85
7109;BME280;29079;41.930;25.558;2023-04-01T15:19:14;98164.56;;;13.97;80.48
7109;BME280;29079;41.930;25.558;2023-04-01T15:21:50;98158.66;;;14.08;80.35